sensor_id;sensor_type;location;lat;lon;timestamp;P1;durP1;ratioP1;P2;durP2;ratioP2
16820;SDS011;8527;49.740;6.604;2023-02-04T00:00:40;14.23;;;6.80;;
16820;SDS011;8527;49.740;6.604;2023-02-04T00:05:46;12.03;;;6.47;;
16820;SDS011;8527;49.740;6.604;2023-02-04T00:10:47;12.20;;;6.85;;
16820;SDS011;8527;49.740;6.604;2023-02-04T00:15:46;12.65;;;7.00;;
16820;SDS011;8527;49.740;6.604;2023-02-04T00:20:44;11.50;;;6.60;;
16820;SDS011;8527;49.740;6.604;2023-02-04T00:25:43;10.20;;;6.85;;
16820;SDS011;8527;49.740;6.604;2023-02-04T00:30:44;11.48;;;6.90;;
16820;SDS011;8527;49.740;6.604;2023-02-04T00:35:43;15.23;;;7.05;;
16820;SDS011;8527;49.740;6.604;2023-02-04T00:40:42;10.75;;;6.82;;
16820;SDS011;8527;49.740;6.604;2023-02-04T00:45:40;11.85;;;6.80;;
16820;SDS011;8527;49.740;6.604;2023-02-04T00:50:42;14.00;;;7.50;;
16820;SDS011;8527;49.740;6.604;2023-02-04T00:55:40;13.75;;;7.00;;
16820;SDS011;8527;49.740;6.604;2023-02-04T01:00:41;15.48;;;7.25;;
16820;SDS011;8527;49.740;6.604;2023-02-04T01:05:44;10.15;;;6.13;;
16820;SDS011;8527;49.740;6.604;2023-02-04T01:10:52;13.80;;;6.57;;
16820;SDS011;8527;49.740;6.604;2023-02-04T01:15:53;12.18;;;7.38;;
16820;SDS011;8527;49.740;6.604;2023-02-04T01:20:54;11.30;;;6.90;;
16820;SDS011;8527;49.740;6.604;2023-02-04T01:25:56;9.75;;;5.80;;
16820;SDS011;8527;49.740;6.604;2023-02-04T01:30:54;10.80;;;6.30;;
16820;SDS011;8527;49.740;6.604;2023-02-04T01:35:58;11.18;;;6.45;;
16820;SDS011;8527;49.740;6.604;2023-02-04T01:41:03;8.02;;;5.60;;
16820;SDS011;8527;49.740;6.604;2023-02-04T01:46:08;9.13;;;5.80;;
16820;SDS011;8527;49.740;6.604;2023-02-04T01:51:13;8.07;;;5.15;;
16820;SDS011;8527;49.740;6.604;2023-02-04T01:56:20;8.32;;;5.03;;
16820;SDS011;8527;49.740;6.604;2023-02-04T02:01:34;7.20;;;5.10;;
16820;SDS011;8527;49.740;6.604;2023-02-04T02:06:41;6.38;;;4.80;;
16820;SDS011;8527;49.740;6.604;2023-02-04T02:11:44;7.57;;;5.20;;
16820;SDS011;8527;49.740;6.604;2023-02-04T02:16:43;5.80;;;4.38;;
16820;SDS011;8527;49.740;6.604;2023-02-04T02:21:51;7.90;;;3.85;;
16820;SDS011;8527;49.740;6.604;2023-02-04T02:27:00;5.57;;;3.90;;
16820;SDS011;8527;49.740;6.604;2023-02-04T02:32:02;7.82;;;3.80;;
16820;SDS011;8527;49.740;6.604;2023-02-04T02:37:04;6.97;;;3.70;;
16820;SDS011;8527;49.740;6.604;2023-02-04T02:42:11;6.68;;;3.50;;
16820;SDS011;8527;49.740;6.604;2023-02-04T02:47:12;5.32;;;3.33;;
16820;SDS011;8527;49.740;6.604;2023-02-04T02:52:12;1.73;;;1.63;;
16820;SDS011;8527;49.740;6.604;2023-02-04T02:57:16;2.63;;;2.38;;
16820;SDS011;8527;49.740;6.604;2023-02-04T03:02:25;2.50;;;2.10;;
16820;SDS011;8527;49.740;6.604;2023-02-04T03:07:32;4.80;;;2.22;;
16820;SDS011;8527;49.740;6.604;2023-02-04T03:12:35;3.33;;;2.10;;
16820;SDS011;8527;49.740;6.604;2023-02-04T03:17:36;2.30;;;2.10;;
16820;SDS011;8527;49.740;6.604;2023-02-04T03:22:38;5.15;;;2.30;;
16820;SDS011;8527;49.740;6.604;2023-02-04T03:27:42;3.40;;;2.22;;
16820;SDS011;8527;49.740;6.604;2023-02-04T03:32:46;1.65;;;1.52;;
16820;SDS011;8527;49.740;6.604;2023-02-04T03:37:57;1.50;;;1.40;;
16820;SDS011;8527;49.740;6.604;2023-02-04T03:43:00;1.83;;;1.30;;
16820;SDS011;8527;49.740;6.604;2023-02-04T03:48:01;1.90;;;1.08;;
16820;SDS011;8527;49.740;6.604;2023-02-04T03:53:06;1.60;;;1.50;;
16820;SDS011;8527;49.740;6.604;2023-02-04T03:58:10;2.57;;;1.20;;
16820;SDS011;8527;49.740;6.604;2023-02-04T04:03:11;1.08;;;0.60;;
16820;SDS011;8527;49.740;6.604;2023-02-04T04:08:10;1.30;;;0.60;;
16820;SDS011;8527;49.740;6.604;2023-02-04T04:13:11;0.77;;;0.70;;
16820;SDS011;8527;49.740;6.604;2023-02-04T04:18:12;1.45;;;1.23;;
16820;SDS011;8527;49.740;6.604;2023-02-04T04:23:19;1.67;;;1.15;;
16820;SDS011;8527;49.740;6.604;2023-02-04T04:28:26;0.90;;;0.90;;
16820;SDS011;8527;49.740;6.604;2023-02-04T04:33:29;1.33;;;1.23;;
16820;SDS011;8527;49.740;6.604;2023-02-04T04:38:34;3.60;;;1.40;;
16820;SDS011;8527;49.740;6.604;2023-02-04T04:43:44;4.95;;;1.27;;
16820;SDS011;8527;49.740;6.604;2023-02-04T04:48:51;3.35;;;1.20;;
16820;SDS011;8527;49.740;6.604;2023-02-04T04:53:49;3.75;;;0.98;;
16820;SDS011;8527;49.740;6.604;2023-02-04T04:58:51;2.58;;;0.47;;
16820;SDS011;8527;49.740;6.604;2023-02-04T05:03:51;4.95;;;0.95;;
16820;SDS011;8527;49.740;6.604;2023-02-04T05:08:54;4.20;;;1.63;;
16820;SDS011;8527;49.740;6.604;2023-02-04T05:13:55;6.70;;;1.60;;
16820;SDS011;8527;49.740;6.604;2023-02-04T05:18:53;3.35;;;1.23;;
16820;SDS011;8527;49.740;6.604;2023-02-04T05:24:06;8.40;;;1.20;;
16820;SDS011;8527;49.740;6.604;2023-02-04T05:29:11;2.42;;;1.05;;
16820;SDS011;8527;49.740;6.604;2023-02-04T05:34:18;3.90;;;1.17;;
16820;SDS011;8527;49.740;6.604;2023-02-04T05:39:17;1.60;;;0.63;;
16820;SDS011;8527;49.740;6.604;2023-02-04T05:44:21;3.20;;;0.77;;
16820;SDS011;8527;49.740;6.604;2023-02-04T05:49:22;5.53;;;0.83;;
16820;SDS011;8527;49.740;6.604;2023-02-04T05:54:24;3.45;;;1.05;;
16820;SDS011;8527;49.740;6.604;2023-02-04T05:59:25;0.98;;;0.88;;
16820;SDS011;8527;49.740;6.604;2023-02-04T06:04:24;5.55;;;1.10;;
16820;SDS011;8527;49.740;6.604;2023-02-04T06:09:22;5.22;;;1.10;;
16820;SDS011;8527;49.740;6.604;2023-02-04T06:14:20;4.40;;;1.98;;
16820;SDS011;8527;49.740;6.604;2023-02-04T06:19:22;4.22;;;1.20;;
16820;SDS011;8527;49.740;6.604;2023-02-04T06:24:21;4.05;;;1.35;;
16820;SDS011;8527;49.740;6.604;2023-02-04T06:29:20;3.60;;;2.38;;
16820;SDS011;8527;49.740;6.604;2023-02-04T06:34:23;10.23;;;3.47;;
16820;SDS011;8527;49.740;6.604;2023-02-04T06:39:22;6.07;;;3.08;;
16820;SDS011;8527;49.740;6.604;2023-02-04T06:44:21;3.92;;;2.20;;
16820;SDS011;8527;49.740;6.604;2023-02-04T06:49:19;3.35;;;1.77;;
16820;SDS011;8527;49.740;6.604;2023-02-04T06:54:21;2.67;;;1.63;;
16820;SDS011;8527;49.740;6.604;2023-02-04T06:59:20;7.05;;;1.73;;
16820;SDS011;8527;49.740;6.604;2023-02-04T07:04:20;5.88;;;2.83;;
16820;SDS011;8527;49.740;6.604;2023-02-04T07:09:18;6.15;;;2.40;;
16820;SDS011;8527;49.740;6.604;2023-02-04T07:14:19;6.22;;;2.10;;
16820;SDS011;8527;49.740;6.604;2023-02-04T07:19:19;6.47;;;1.95;;
16820;SDS011;8527;49.740;6.604;2023-02-04T07:24:18;10.23;;;2.08;;
16820;SDS011;8527;49.740;6.604;2023-02-04T07:29:16;5.07;;;1.52;;
16820;SDS011;8527;49.740;6.604;2023-02-04T07:34:17;5.07;;;1.75;;
16820;SDS011;8527;49.740;6.604;2023-02-04T07:39:22;3.63;;;1.30;;
16820;SDS011;8527;49.740;6.604;2023-02-04T07:44:23;5.28;;;1.92;;
16820;SDS011;8527;49.740;6.604;2023-02-04T07:49:24;6.85;;;2.28;;
16820;SDS011;8527;49.740;6.604;2023-02-04T07:54:26;5.10;;;2.95;;
16820;SDS011;8527;49.740;6.604;2023-02-04T07:59:25;10.80;;;2.58;;
16820;SDS011;8527;49.740;6.604;2023-02-04T08:04:26;6.40;;;2.10;;
16820;SDS011;8527;49.740;6.604;2023-02-04T08:09:25;8.45;;;2.85;;
16820;SDS011;8527;49.740;6.604;2023-02-04T08:14:25;10.75;;;3.25;;
16820;SDS011;8527;49.740;6.604;2023-02-04T08:19:29;7.20;;;2.25;;
16820;SDS011;8527;49.740;6.604;2023-02-04T08:24:28;8.63;;;1.83;;
16820;SDS011;8527;49.740;6.604;2023-02-04T08:29:29;6.22;;;1.90;;
16820;SDS011;8527;49.740;6.604;2023-02-04T08:34:36;11.85;;;2.42;;
16820;SDS011;8527;49.740;6.604;2023-02-04T08:39:39;8.18;;;2.33;;
16820;SDS011;8527;49.740;6.604;2023-02-04T08:44:40;10.93;;;2.53;;
16820;SDS011;8527;49.740;6.604;2023-02-04T08:49:44;11.48;;;3.45;;
16820;SDS011;8527;49.740;6.604;2023-02-04T08:54:46;9.57;;;2.95;;
16820;SDS011;8527;49.740;6.604;2023-02-04T08:59:45;10.27;;;3.22;;
16820;SDS011;8527;49.740;6.604;2023-02-04T09:04:49;10.43;;;2.70;;
16820;SDS011;8527;49.740;6.604;2023-02-04T09:09:56;9.10;;;3.50;;
16820;SDS011;8527;49.740;6.604;2023-02-04T09:14:55;11.90;;;2.50;;
16820;SDS011;8527;49.740;6.604;2023-02-04T09:20:02;7.22;;;2.70;;
16820;SDS011;8527;49.740;6.604;2023-02-04T09:25:01;12.40;;;2.47;;
16820;SDS011;8527;49.740;6.604;2023-02-04T09:29:59;8.95;;;2.40;;
16820;SDS011;8527;49.740;6.604;2023-02-04T09:35:04;16.13;;;2.97;;
16820;SDS011;8527;49.740;6.604;2023-02-04T09:40:05;9.68;;;2.50;;
16820;SDS011;8527;49.740;6.604;2023-02-04T09:45:05;12.20;;;2.40;;
16820;SDS011;8527;49.740;6.604;2023-02-04T09:50:16;12.63;;;2.45;;
16820;SDS011;8527;49.740;6.604;2023-02-04T09:55:38;9.48;;;2.90;;
16820;SDS011;8527;49.740;6.604;2023-02-04T10:00:39;14.25;;;4.05;;
16820;SDS011;8527;49.740;6.604;2023-02-04T10:05:43;14.77;;;2.90;;
16820;SDS011;8527;49.740;6.604;2023-02-04T10:10:43;13.75;;;3.30;;
16820;SDS011;8527;49.740;6.604;2023-02-04T10:15:43;14.57;;;3.80;;
16820;SDS011;8527;49.740;6.604;2023-02-04T10:20:45;15.38;;;3.42;;
16820;SDS011;8527;49.740;6.604;2023-02-04T10:25:43;14.25;;;3.00;;
16820;SDS011;8527;49.740;6.604;2023-02-04T10:30:42;17.00;;;3.97;;
16820;SDS011;8527;49.740;6.604;2023-02-04T10:35:49;18.73;;;4.38;;
16820;SDS011;8527;49.740;6.604;2023-02-04T10:46:10;9.90;;;4.50;;
16820;SDS011;8527;49.740;6.604;2023-02-04T10:51:17;14.43;;;3.30;;
16820;SDS011;8527;49.740;6.604;2023-02-04T10:56:18;21.83;;;5.10;;
16820;SDS011;8527;49.740;6.604;2023-02-04T11:01:18;15.05;;;3.53;;
16820;SDS011;8527;49.740;6.604;2023-02-04T11:06:23;9.35;;;2.88;;
16820;SDS011;8527;49.740;6.604;2023-02-04T11:11:22;15.10;;;4.30;;
16820;SDS011;8527;49.740;6.604;2023-02-04T11:16:23;16.67;;;4.80;;
16820;SDS011;8527;49.740;6.604;2023-02-04T11:21:40;15.77;;;3.60;;
16820;SDS011;8527;49.740;6.604;2023-02-04T11:26:39;18.38;;;5.30;;
16820;SDS011;8527;49.740;6.604;2023-02-04T11:31:43;15.00;;;2.92;;
16820;SDS011;8527;49.740;6.604;2023-02-04T11:37:10;15.55;;;3.75;;
16820;SDS011;8527;49.740;6.604;2023-02-04T11:42:20;10.88;;;2.42;;
16820;SDS011;8527;49.740;6.604;2023-02-04T11:47:36;11.65;;;3.05;;
16820;SDS011;8527;49.740;6.604;2023-02-04T11:52:37;15.80;;;3.00;;
16820;SDS011;8527;49.740;6.604;2023-02-04T11:57:39;14.27;;;3.28;;
16820;SDS011;8527;49.740;6.604;2023-02-04T12:02:43;19.20;;;3.83;;
16820;SDS011;8527;49.740;6.604;2023-02-04T12:07:47;14.73;;;3.10;;
16820;SDS011;8527;49.740;6.604;2023-02-04T12:12:47;19.83;;;4.10;;
16820;SDS011;8527;49.740;6.604;2023-02-04T12:18:01;16.83;;;4.47;;
16820;SDS011;8527;49.740;6.604;2023-02-04T12:23:04;15.95;;;3.63;;
16820;SDS011;8527;49.740;6.604;2023-02-04T12:28:03;15.32;;;4.22;;
16820;SDS011;8527;49.740;6.604;2023-02-04T12:33:04;23.70;;;3.80;;
16820;SDS011;8527;49.740;6.604;2023-02-04T12:38:05;16.92;;;4.07;;
16820;SDS011;8527;49.740;6.604;2023-02-04T12:43:04;15.25;;;3.35;;
16820;SDS011;8527;49.740;6.604;2023-02-04T12:48:03;14.38;;;3.85;;
16820;SDS011;8527;49.740;6.604;2023-02-04T12:53:02;16.73;;;4.00;;
16820;SDS011;8527;49.740;6.604;2023-02-04T12:58:05;16.23;;;3.88;;
16820;SDS011;8527;49.740;6.604;2023-02-04T13:03:10;17.83;;;4.25;;
16820;SDS011;8527;49.740;6.604;2023-02-04T13:08:13;17.27;;;4.22;;
16820;SDS011;8527;49.740;6.604;2023-02-04T13:13:18;10.55;;;3.25;;
16820;SDS011;8527;49.740;6.604;2023-02-04T13:18:24;27.45;;;4.03;;
16820;SDS011;8527;49.740;6.604;2023-02-04T13:23:29;18.98;;;4.63;;
16820;SDS011;8527;49.740;6.604;2023-02-04T13:28:30;15.02;;;3.75;;
16820;SDS011;8527;49.740;6.604;2023-02-04T13:33:32;14.55;;;2.88;;
16820;SDS011;8527;49.740;6.604;2023-02-04T13:38:36;21.65;;;5.10;;
16820;SDS011;8527;49.740;6.604;2023-02-04T13:43:43;20.73;;;4.53;;
16820;SDS011;8527;49.740;6.604;2023-02-04T13:48:41;10.85;;;3.30;;
16820;SDS011;8527;49.740;6.604;2023-02-04T13:53:50;13.77;;;3.00;;
16820;SDS011;8527;49.740;6.604;2023-02-04T13:58:51;16.02;;;5.82;;
16820;SDS011;8527;49.740;6.604;2023-02-04T14:03:52;20.38;;;6.65;;
16820;SDS011;8527;49.740;6.604;2023-02-04T14:08:53;16.92;;;6.38;;
16820;SDS011;8527;49.740;6.604;2023-02-04T14:13:57;15.40;;;3.40;;
16820;SDS011;8527;49.740;6.604;2023-02-04T14:18:55;12.68;;;3.08;;
16820;SDS011;8527;49.740;6.604;2023-02-04T14:23:59;14.23;;;4.22;;
16820;SDS011;8527;49.740;6.604;2023-02-04T14:29:03;13.63;;;2.70;;
16820;SDS011;8527;49.740;6.604;2023-02-04T14:34:02;13.70;;;3.20;;
16820;SDS011;8527;49.740;6.604;2023-02-04T14:39:03;14.18;;;3.22;;
16820;SDS011;8527;49.740;6.604;2023-02-04T14:44:05;17.02;;;3.33;;
16820;SDS011;8527;49.740;6.604;2023-02-04T14:49:06;15.07;;;3.80;;
16820;SDS011;8527;49.740;6.604;2023-02-04T14:54:05;12.80;;;3.47;;
16820;SDS011;8527;49.740;6.604;2023-02-04T14:59:08;14.15;;;3.30;;
16820;SDS011;8527;49.740;6.604;2023-02-04T15:04:09;11.98;;;3.90;;
16820;SDS011;8527;49.740;6.604;2023-02-04T15:09:14;11.85;;;3.35;;
16820;SDS011;8527;49.740;6.604;2023-02-04T15:14:15;7.78;;;2.83;;
16820;SDS011;8527;49.740;6.604;2023-02-04T15:19:14;13.77;;;3.78;;
16820;SDS011;8527;49.740;6.604;2023-02-04T15:24:17;14.73;;;3.30;;
16820;SDS011;8527;49.740;6.604;2023-02-04T15:29:22;14.00;;;3.67;;
16820;SDS011;8527;49.740;6.604;2023-02-04T15:34:28;16.52;;;4.68;;
16820;SDS011;8527;49.740;6.604;2023-02-04T15:39:26;15.55;;;4.47;;
16820;SDS011;8527;49.740;6.604;2023-02-04T15:44:30;17.58;;;4.00;;
16820;SDS011;8527;49.740;6.604;2023-02-04T15:49:31;19.55;;;6.05;;
16820;SDS011;8527;49.740;6.604;2023-02-04T15:54:30;15.88;;;3.78;;
16820;SDS011;8527;49.740;6.604;2023-02-04T15:59:31;13.80;;;4.18;;
16820;SDS011;8527;49.740;6.604;2023-02-04T16:04:29;15.73;;;5.18;;
16820;SDS011;8527;49.740;6.604;2023-02-04T16:09:28;22.33;;;5.43;;
16820;SDS011;8527;49.740;6.604;2023-02-04T16:14:26;15.95;;;4.22;;
16820;SDS011;8527;49.740;6.604;2023-02-04T16:19:27;16.80;;;4.97;;
16820;SDS011;8527;49.740;6.604;2023-02-04T16:24:26;14.27;;;5.40;;
16820;SDS011;8527;49.740;6.604;2023-02-04T16:29:24;15.20;;;6.00;;
16820;SDS011;8527;49.740;6.604;2023-02-04T16:34:23;18.95;;;5.78;;
16820;SDS011;8527;49.740;6.604;2023-02-04T16:39:24;16.05;;;6.40;;
16820;SDS011;8527;49.740;6.604;2023-02-04T16:44:23;16.48;;;5.30;;
16820;SDS011;8527;49.740;6.604;2023-02-04T16:49:25;16.02;;;5.80;;
16820;SDS011;8527;49.740;6.604;2023-02-04T16:54:26;23.33;;;6.00;;
16820;SDS011;8527;49.740;6.604;2023-02-04T16:59:24;18.70;;;4.90;;
16820;SDS011;8527;49.740;6.604;2023-02-04T17:04:26;12.15;;;4.68;;
16820;SDS011;8527;49.740;6.604;2023-02-04T17:09:30;12.50;;;4.57;;
16820;SDS011;8527;49.740;6.604;2023-02-04T17:14:29;15.20;;;4.50;;
16820;SDS011;8527;49.740;6.604;2023-02-04T17:19:29;17.95;;;4.65;;
16820;SDS011;8527;49.740;6.604;2023-02-04T17:24:30;14.85;;;4.22;;
16820;SDS011;8527;49.740;6.604;2023-02-04T17:29:37;34.75;;;10.23;;
16820;SDS011;8527;49.740;6.604;2023-02-04T17:34:36;16.70;;;5.00;;
16820;SDS011;8527;49.740;6.604;2023-02-04T17:39:37;17.80;;;5.40;;
16820;SDS011;8527;49.740;6.604;2023-02-04T17:44:38;20.38;;;5.13;;
16820;SDS011;8527;49.740;6.604;2023-02-04T17:49:39;23.73;;;5.43;;
16820;SDS011;8527;49.740;6.604;2023-02-04T17:54:40;14.20;;;6.13;;
16820;SDS011;8527;49.740;6.604;2023-02-04T17:59:39;12.82;;;6.50;;
16820;SDS011;8527;49.740;6.604;2023-02-04T18:04:37;23.65;;;8.38;;
16820;SDS011;8527;49.740;6.604;2023-02-04T18:09:36;31.05;;;9.77;;
16820;SDS011;8527;49.740;6.604;2023-02-04T18:14:40;39.75;;;9.38;;
16820;SDS011;8527;49.740;6.604;2023-02-04T18:19:39;32.17;;;8.68;;
16820;SDS011;8527;49.740;6.604;2023-02-04T18:24:40;20.88;;;7.20;;
16820;SDS011;8527;49.740;6.604;2023-02-04T18:29:46;21.05;;;7.00;;
16820;SDS011;8527;49.740;6.604;2023-02-04T18:34:46;19.98;;;6.05;;
16820;SDS011;8527;49.740;6.604;2023-02-04T18:39:48;17.95;;;6.38;;
16820;SDS011;8527;49.740;6.604;2023-02-04T18:44:49;16.35;;;5.40;;
16820;SDS011;8527;49.740;6.604;2023-02-04T18:49:50;17.02;;;3.83;;
16820;SDS011;8527;49.740;6.604;2023-02-04T18:54:49;13.93;;;3.92;;
16820;SDS011;8527;49.740;6.604;2023-02-04T18:59:51;19.50;;;5.18;;
16820;SDS011;8527;49.740;6.604;2023-02-04T19:04:53;11.73;;;4.00;;
16820;SDS011;8527;49.740;6.604;2023-02-04T19:09:51;13.52;;;4.68;;
16820;SDS011;8527;49.740;6.604;2023-02-04T19:14:56;9.80;;;4.15;;
16820;SDS011;8527;49.740;6.604;2023-02-04T19:19:56;14.52;;;4.40;;
16820;SDS011;8527;49.740;6.604;2023-02-04T19:24:56;16.50;;;4.90;;
16820;SDS011;8527;49.740;6.604;2023-02-04T19:30:01;15.48;;;5.35;;
16820;SDS011;8527;49.740;6.604;2023-02-04T19:35:20;18.75;;;7.82;;
16820;SDS011;8527;49.740;6.604;2023-02-04T19:40:24;22.88;;;7.53;;
16820;SDS011;8527;49.740;6.604;2023-02-04T19:45:28;16.92;;;6.95;;
16820;SDS011;8527;49.740;6.604;2023-02-04T19:50:27;20.48;;;6.72;;
16820;SDS011;8527;49.740;6.604;2023-02-04T19:55:27;19.63;;;7.15;;
16820;SDS011;8527;49.740;6.604;2023-02-04T20:05:58;16.88;;;7.05;;
16820;SDS011;8527;49.740;6.604;2023-02-04T20:10:58;26.90;;;7.50;;
16820;SDS011;8527;49.740;6.604;2023-02-04T20:16:25;14.27;;;5.13;;
16820;SDS011;8527;49.740;6.604;2023-02-04T20:21:35;12.05;;;5.35;;
16820;SDS011;8527;49.740;6.604;2023-02-04T20:26:36;14.18;;;6.10;;
16820;SDS011;8527;49.740;6.604;2023-02-04T20:31:37;26.35;;;8.05;;
16820;SDS011;8527;49.740;6.604;2023-02-04T20:36:40;21.58;;;7.15;;
16820;SDS011;8527;49.740;6.604;2023-02-04T20:41:40;23.58;;;5.32;;
16820;SDS011;8527;49.740;6.604;2023-02-04T20:46:42;13.98;;;4.90;;
16820;SDS011;8527;49.740;6.604;2023-02-04T20:51:40;13.98;;;5.55;;
16820;SDS011;8527;49.740;6.604;2023-02-04T20:56:39;19.55;;;6.47;;
16820;SDS011;8527;49.740;6.604;2023-02-04T21:01:38;18.30;;;5.78;;
16820;SDS011;8527;49.740;6.604;2023-02-04T21:06:40;10.45;;;5.00;;
16820;SDS011;8527;49.740;6.604;2023-02-04T21:11:40;16.15;;;6.10;;
16820;SDS011;8527;49.740;6.604;2023-02-04T21:16:41;13.40;;;5.80;;
16820;SDS011;8527;49.740;6.604;2023-02-04T21:21:44;22.65;;;8.00;;
16820;SDS011;8527;49.740;6.604;2023-02-04T21:26:43;22.15;;;8.23;;
16820;SDS011;8527;49.740;6.604;2023-02-04T21:31:45;14.13;;;5.72;;
16820;SDS011;8527;49.740;6.604;2023-02-04T21:36:46;13.80;;;5.85;;
16820;SDS011;8527;49.740;6.604;2023-02-04T21:41:44;17.50;;;5.80;;
16820;SDS011;8527;49.740;6.604;2023-02-04T21:47:03;18.52;;;6.07;;
16820;SDS011;8527;49.740;6.604;2023-02-04T21:52:09;16.33;;;6.22;;
16820;SDS011;8527;49.740;6.604;2023-02-04T21:57:09;18.13;;;6.60;;
16820;SDS011;8527;49.740;6.604;2023-02-04T22:02:09;18.40;;;5.70;;
16820;SDS011;8527;49.740;6.604;2023-02-04T22:07:10;16.88;;;5.95;;
16820;SDS011;8527;49.740;6.604;2023-02-04T22:12:08;16.50;;;5.53;;
16820;SDS011;8527;49.740;6.604;2023-02-04T22:17:09;17.33;;;6.07;;
16820;SDS011;8527;49.740;6.604;2023-02-04T22:22:10;17.58;;;4.95;;
16820;SDS011;8527;49.740;6.604;2023-02-04T22:27:08;15.80;;;5.18;;
16820;SDS011;8527;49.740;6.604;2023-02-04T22:32:07;12.38;;;4.88;;
16820;SDS011;8527;49.740;6.604;2023-02-04T22:37:05;21.83;;;6.93;;
16820;SDS011;8527;49.740;6.604;2023-02-04T22:42:06;10.60;;;4.43;;
16820;SDS011;8527;49.740;6.604;2023-02-04T22:47:08;16.70;;;5.32;;
16820;SDS011;8527;49.740;6.604;2023-02-04T22:52:06;16.65;;;4.38;;
16820;SDS011;8527;49.740;6.604;2023-02-04T22:57:08;12.82;;;3.90;;
16820;SDS011;8527;49.740;6.604;2023-02-04T23:02:07;18.08;;;5.47;;
16820;SDS011;8527;49.740;6.604;2023-02-04T23:07:05;15.02;;;5.32;;
16820;SDS011;8527;49.740;6.604;2023-02-04T23:12:04;15.35;;;4.75;;
16820;SDS011;8527;49.740;6.604;2023-02-04T23:17:12;14.00;;;5.18;;
16820;SDS011;8527;49.740;6.604;2023-02-04T23:22:11;16.90;;;5.20;;
16820;SDS011;8527;49.740;6.604;2023-02-04T23:27:10;13.38;;;5.20;;
16820;SDS011;8527;49.740;6.604;2023-02-04T23:32:13;15.18;;;4.35;;
16820;SDS011;8527;49.740;6.604;2023-02-04T23:37:11;16.77;;;4.70;;
16820;SDS011;8527;49.740;6.604;2023-02-04T23:42:10;13.73;;;4.25;;
16820;SDS011;8527;49.740;6.604;2023-02-04T23:47:09;16.05;;;4.88;;
16820;SDS011;8527;49.740;6.604;2023-02-04T23:52:12;12.68;;;5.05;;
16820;SDS011;8527;49.740;6.604;2023-02-04T23:57:11;13.05;;;4.82;;
